Timeline UpdatesTrip UpdatesNews PostsPvt PostsTravel TipsAdmin PostsConv PostsFollowed PostsChat RequestsBlog PostsPNR Posts

Disclaimer
Search
 
 
Wed Sep 24, 2014 03:56:25 ISTHomeTrainsΣChainsAtlasPNRForumGalleryNewsFAQTripsMembersLoginFeedback
No Recent News for this Train
Other Trains in the News **new
Latest...
Tr.No.17406 Adilabad -Tirupati Express is cancelled o­n 27.04.2014.
Sat Apr 26, 2014 (03:22PM)
⇐ Return Journey: Train# 17405

17406/Krishna Express

Time-Table HAS CHANGED.
Sep 03 (11:11AM)
Change Departure Station:
Change Arrival Station:
Post a Train Travel TipPost a Train Travel Tip **new
Post a Comment/Question/Picture/VideoPost a Comment/Question/Picture/Video
Inaugural Run
Wed Oct 02, 1974
Pantry/Catering
✕ NO Pantry Car
✓ Catering Avbl
Loco/Rake Reversals
SC/Secunderabad Junction (10); MUE/Mudkhed Junction (4);
RSA - Rake Sharing
17405/17406/17409/17410 has RSA.
Rake/Coach Composition
Loco-SLR-GS-D6-D5-D4-D3-D2-D1-S2-S1-C1-B1-GS-GS-GS-GS-GS-SLR
Loco
ADB - SC: KZJ WDG-3A. SC - TPTY: LGD WAP4/7.
News    PNR    Forum    Time-Table    Availability    Fare Chart    Map    Arr/Dep History    Trips    Gallery    ΣChains    X/O    Timeline    
Travel Time: 7h 53m    21 halts    Distance: 375 km    Avg Speed: 47 km/hr
Type: Mail/Express
Zone: SCR/South Central
Departs @ 13:32 (Avg 34m late)
Platform# ???
SMTWTFS
Peddavadiapudi/PVD 
Arrives @ 21:25 (Avg 17m late)
Platform# 1
SMTWTFS
Tirupati Main/TPTY 

21 halts. 57 intermediate Stations between Peddavadiapudi and Tirupati Main

Show ALL intermediate Stations  Show Old Time-Table

#CodeStation NameX/OArrivesAvgDepartsAvgHaltPFDay#KmSpeedElevZoneAddress
1ADBAdilabad (3)  -20:45+011-773.380248mSCRAdilabad, Telangana
2KNVTKinwat (2)  21:03 21:19+2721:04 21:20+291m11-728.163319mSCRKinwat, Maharashtra
3BHBKBodhadi Bujrug  21:44 21:34+1221:45 21:35+131m--1-713.475357mSCRKinwat, Maharashtra
4SHSKSahasrakund  22:14 21:59+1822:15 22:00+191m--1-683.349402mSCRNanded, Maharashtra
5HEMHimayatnagar  22:29 22:19+1922:30 22:20+201m--1-667.737398mSCRNanded, Maharashtra
6BOKRBhokar  23:24 23:19+423:25 23:20+61m11-631.628460mSCRBhokar, Maharashtra
7MUEMudkhed Junction (4)O↵¶00:05-200:15+810m22-610.434378mSCRMudkhed, Maharashtra
8UMRIUmri (1)X  00:49+100:50+51m12-590.965381mSCRHuzur Sahib Nanded, Maharashtra
9DABDharmabad (2)X  01:17+1401:18+181m12-561.535354mSCRDegaon, Maharashtra
10BSXBasar (2)X  01:35+1401:37+182m12-551.653358mSCRDist Adilabad, Telangana
11NZBNizamabad (3)  02:10+1702:15+245m12-522.371384mSCRNizamabad, Telangana
12KMCKamareddi (3)  03:00 02:59+3003:01+311 2m12-470.467528mSCRNizamabad Dist., Telangana
13AKEAkanapet (1)O  03:24+3003:25+311m12-444.792566mSCRMedak District., Telangana
14MZLMirzapalli (1)  03:32+3203:33+321m12-433.943530mSCRMedak Dist., Telangana
15BMOBolarum (3)X  04:55+804:56+91m12-375.227597mSCRSecunderabad, Telangana
16MJFMalkajgiri (3)X  05:19+305:20+31m22-365.08535mSCRSecunderabad, Telangana
17SCSecunderabad Junction (10)X05:45+1606:05+1920m62-361.643539mSCRSecunderabad 500003, Telangana
18MLYMoula Ali (2)X  06:13+3306:14+341m12-355.957520mSCRSecunderabad, Telangana
19CHZCharlapalli (2)  06:21+3806:22+391m22-349.276523mSCRRangareddy Dist., Telangana
20BGBhongir (3)X  06:49+4106:50+421m22-315.297455mSCRNalgonda Dist., Telangana
21RAGRaigir (2)X  06:54+1506:55+151m22-308.873415mSCRNalgonda, Telangana
22ALERAler (2)X  07:08+4807:09+491m22-293.072366mSCRNalgonda Dist., Telangana
23PBPPembarti (2)  07:17+4807:18+501m22-283.441382mSCRWarangal Dist., Telangana
24ZNJangaon (2)  07:26+5107:27+531m22-277.975380mSCRWarangal Dist., Telangana
25RGPRaghunathpalli (2)  07:36+5307:37+531m22-266.684357mSCRWarangal Dist., Telangana
26GNPGhanpur (2)  07:49+5807:50+591m22-249.843344mSCRWarangal Dist. / Enq Ph : 08711 220231, Telangana
27KZJKazipet Junction (3)X  08:18+4608:20+492m22-230.051292mSCRWarangal Dist., Telangana
28WLWarangal (3)  08:32+5908:34+1:012m12-219.874271mSCRWarangal., Telangana
29NKDNekonda (2)  08:58+1:0608:59+1:061m12-190.177236mSCRWarangal Dist., Telangana
30KDMKesamudram (2)X  09:11+1:1009:12+1:101m12-174.681223mSCRWarangal Dist., Telangana
31MABDMahbubabad (2)  09:23+1:1409:24+1:151m12-159.7107200mSCRWarangal Dist., Telangana
32GLAGarla (2)X  09:35-09:36-1m12-140.018156mSCRKhammam Dist., Telangana
33DKJDornakal Junction (3)  09:52+1:0809:54+1:072m22-135.392153mSCRWarangal District, Telangana
34KMTKhammam (2)X  10:09+1:0210:11+1:022m12-112.288118mSCRKhammam 507001, Telangana
35BKLBona Kalu (2)  10:30+1:1810:31+1:181m12-84.48597mSCRKhammam Dist., Telangana
36MDRMadhira (2)  10:43+1:1810:44+1:181m12-67.48461mSCRKhammam Dist., Telangana
37YPErrupalem (2)X  10:55+1:3610:56+1:361m--2-52.01857mSCRKhammam Dist., Telangana
38KIKondapalli (2)XO  12:18+3412:20+352m22-27.42735mSCRKondapalli, Andhra Pradesh
39BZAVijayawada Junction (10)X  12:55+2513:15+2320m102-11.94524mSCRVijayawada 520001, Andhra Pradesh
40PVDPeddavadiapudi (3)»X  13:31+3313:32+341m--20.06520mSCRKL University to NH 5, Andhra Pradesh
41DIGDuggirala (3)X  13:41+3713:42+391m--29.73616mSCRDuggirala, Andhra Pradesh
42TELTenali Junction (5)  13:58+3314:00+362m3219.47716mSCRTel: 08644-227834, Andhra Pradesh
43TSRTsunduru (3)  14:09+4014:10+411m--230.95712mSCRTsunduru, Andhra Pradesh
44NDONidubrolu (3)  14:21+4114:22+421m--241.4699mSCRNidubrolu, Andhra Pradesh
45BPPBapatla (3)X  14:40+4714:41+491m--262.08210mSCRBapatla, Andhra Pradesh
46CLXChirala (4)  14:52+5114:53+531m--277.1598mSCRChirala, Andhra Pradesh
47VTMVetapalem (3)X  15:01+5815:02+1:001m--284.9758mSCRVetapalem, Andhra Pradesh
48CJMChinnaganjam (3)  15:12+5915:13+1:001m--297.4779mSCRChinna Ganjam, Andhra Pradesh
49ANBAmmanabrolu (3)X  15:24+1:0115:25+1:021m--2111.54316mSCRAmmanabrolu, Andhra Pradesh
50OGLOngole (3)  15:46+5015:48+532m32126.47012mSCROngole, Andhra Pradesh
51TNRTanguturu (3)  16:04+1:0716:05+1:071m12145.07210mSCRTanguturu, Andhra Pradesh
52SKMSingarayakonda (2)X  16:13+1:0616:14+1:071m22154.69926mSCRSingarayakonda, Andhra Pradesh
53KVZKavali (4)X  16:37+2416:39+242m22192.48221mSCRKavali, Andhra Pradesh
54BTTRBitragunta (2)X  16:51+4116:52+351m22208.84515mSCRBitragunta, Andhra Pradesh
55NLRNellore (4)  17:38+2617:40+262m32243.24821mSCRNellore, Andhra Pradesh
56VDEVedayapalem (2)XO  17:49+1217:50+131m22250.41927mSCRNellore, Andhra Pradesh
57GDRGudur Junction (3)  19:08 19:28+2719:10 19:30+272m32281.66819mSCRGudur, Andhra Pradesh
58VDDVendodu (2)X  19:27 19:47+4819:28 19:48+511m--2300.89955mSCRNellore, Andhra Pradesh
59VKIVenkatagiri (3)  19:40 19:58+5919:41 20:00+1:001 2m22317.48277mSCRNellore District, Andhra Pradesh
60KHTSri Kalahasti (2)X  20:01 20:18+5020:02 20:20+511 2m12341.87068mSCRChittoor District, Andhra Pradesh
61RURenigunta Junction (5)O  20:35 20:40+3620:40 20:45+355m--2365.015113mSCRChittoor District, Andhra Pradesh
62TPTYTirupati Main (5)•  21:25+17-12374.9-150mSCRChittoor Distt, Andhra Pradesh
Scroll to Top
Scroll to Bottom